createdAt,value
2017-05-01T00:00:51.309Z,7.42
2017-05-01T00:03:26.339Z,6.37
2017-05-01T00:06:01.779Z,5.98
2017-05-01T00:08:38.059Z,8.50
2017-05-01T00:11:13.531Z,6.27
2017-05-01T00:13:48.706Z,7.60
2017-05-01T00:16:24.202Z,6.68
2017-05-01T00:19:00.101Z,7.28
2017-05-01T00:21:36.045Z,7.33
2017-05-01T00:24:11.193Z,7.27
2017-05-01T00:26:46.441Z,8.07
2017-05-01T00:29:21.725Z,6.98
2017-05-01T00:31:57.689Z,8.12
2017-05-01T00:34:32.851Z,9.13
2017-05-01T00:37:09.027Z,7.67
2017-05-01T00:39:44.803Z,7.52
2017-05-01T00:42:22.425Z,7.27
2017-05-01T00:44:57.487Z,7.62
2017-05-01T00:47:32.741Z,8.98
2017-05-01T00:50:08.002Z,8.48
2017-05-01T00:52:43.330Z,10.90
2017-05-01T00:55:19.252Z,8.23
2017-05-01T00:57:54.657Z,7.30
2017-05-01T01:00:30.021Z,7.90
2017-05-01T01:03:05.538Z,8.55
2017-05-01T01:05:40.846Z,7.85
2017-05-01T01:08:16.146Z,7.98
2017-05-01T01:11:10.450Z,8.62
2017-05-01T01:13:45.913Z,9.73
2017-05-01T01:16:20.953Z,7.12
2017-05-01T01:18:56.104Z,8.58
2017-05-01T01:21:32.785Z,8.80
2017-05-01T01:24:08.093Z,9.70
2017-05-01T01:26:43.096Z,9.55
2017-05-01T01:29:18.918Z,8.40
2017-05-01T01:31:54.796Z,8.95
2017-05-01T01:34:30.054Z,9.07
2017-05-01T01:37:05.313Z,9.37
2017-05-01T01:39:40.657Z,8.33
2017-05-01T01:42:15.923Z,8.33
2017-05-01T01:44:51.238Z,9.98
2017-05-01T01:47:26.495Z,9.50
2017-05-01T01:50:02.533Z,11.15
2017-05-01T01:52:38.467Z,8.17
2017-05-01T01:55:13.846Z,10.17
2017-05-01T01:57:49.093Z,9.62
2017-05-01T02:00:24.399Z,9.00
2017-05-01T02:02:59.541Z,8.50
2017-05-01T02:05:35.601Z,9.63
2017-05-01T02:08:10.829Z,10.07
2017-05-01T02:10:46.668Z,9.20
2017-05-01T02:13:22.717Z,10.45
2017-05-01T02:15:58.020Z,11.73
2017-05-01T02:18:33.337Z,11.90
2017-05-01T02:21:08.596Z,10.55
2017-05-01T02:23:43.806Z,9.07
2017-05-01T02:26:19.109Z,10.92
2017-05-01T02:28:54.374Z,10.07
2017-05-01T02:31:29.912Z,10.75
2017-05-01T02:34:05.074Z,9.28
2017-05-01T02:36:40.942Z,11.08
2017-05-01T02:39:16.157Z,9.77
2017-05-01T02:41:51.600Z,10.67
2017-05-01T02:44:26.601Z,10.70
2017-05-01T02:47:02.448Z,9.73
2017-05-01T02:49:37.521Z,8.70
2017-05-01T02:52:12.788Z,9.70
2017-05-01T02:54:48.769Z,9.67
2017-05-01T02:57:23.994Z,9.00
2017-05-01T02:59:59.301Z,9.38
2017-05-01T03:02:34.519Z,9.20
2017-05-01T03:05:09.972Z,9.92
2017-05-01T03:07:45.075Z,10.05
2017-05-01T03:10:20.481Z,9.93
2017-05-01T03:12:55.645Z,6.18
2017-05-01T03:15:31.657Z,10.67
2017-05-01T03:18:06.918Z,10.57
2017-05-01T03:20:42.221Z,8.87
2017-05-01T03:23:17.565Z,9.52
2017-05-01T03:25:52.804Z,10.40
2017-05-01T03:28:27.857Z,12.58
2017-05-01T03:31:03.384Z,9.10
2017-05-01T03:33:38.727Z,9.87
2017-05-01T03:36:14.170Z,9.72
2017-05-01T03:38:50.122Z,9.25
2017-05-01T03:41:26.488Z,10.95
2017-05-01T03:44:01.525Z,10.63
2017-05-01T03:46:37.153Z,7.93
2017-05-01T03:49:12.456Z,9.58
2017-05-01T03:51:47.853Z,9.85
2017-05-01T03:54:23.398Z,9.20
2017-05-01T03:56:59.005Z,8.65
2017-05-01T03:59:34.785Z,8.50
2017-05-01T04:02:10.620Z,10.68
2017-05-01T04:04:46.589Z,9.58
2017-05-01T04:07:21.832Z,10.18
2017-05-01T04:09:57.189Z,10.38
2017-05-01T04:12:33.104Z,11.68
2017-05-01T04:15:08.883Z,9.72
2017-05-01T04:17:44.797Z,10.52
2017-05-01T04:20:20.085Z,9.27
2017-05-01T04:22:55.301Z,10.37
2017-05-01T04:25:31.181Z,10.00
2017-05-01T04:28:06.458Z,9.18
2017-05-01T04:30:41.735Z,10.85
2017-05-01T04:33:17.002Z,10.13
2017-05-01T04:35:52.333Z,11.97
2017-05-01T04:38:27.673Z,11.85
2017-05-01T04:41:03.014Z,9.45
2017-05-01T04:43:38.246Z,10.20
2017-05-01T04:46:13.605Z,11.27
2017-05-01T04:48:48.885Z,11.78
2017-05-01T04:51:24.168Z,9.92
2017-05-01T04:53:59.592Z,10.30
2017-05-01T05:46:06.609Z,11.50
2017-05-01T05:48:41.827Z,11.20
2017-05-01T05:51:17.185Z,9.67
2017-05-01T05:53:52.373Z,11.12
2017-05-01T05:56:27.575Z,9.53
2017-05-01T05:59:03.601Z,10.77
2017-05-01T06:01:38.696Z,11.70
2017-05-01T06:04:13.794Z,10.40
2017-05-01T06:06:49.192Z,11.03
2017-05-01T06:09:25.083Z,10.18
2017-05-01T06:12:01.050Z,10.70
2017-05-01T06:14:36.891Z,11.92
2017-05-01T06:17:12.334Z,11.40
2017-05-01T06:19:47.573Z,11.65
2017-05-01T06:22:22.613Z,10.90
2017-05-01T06:24:58.069Z,11.67
2017-05-01T06:27:34.119Z,11.98
2017-05-01T06:30:09.362Z,12.87
2017-05-01T06:32:44.690Z,13.50
2017-05-01T06:35:19.824Z,12.82
2017-05-01T06:37:54.907Z,12.63
2017-05-01T06:40:30.223Z,13.32
2017-05-01T06:43:06.379Z,13.40
2017-05-01T06:45:41.549Z,12.23
2017-05-01T06:48:16.715Z,13.48
2017-05-01T06:50:52.693Z,13.33
2017-05-01T06:53:28.711Z,11.88
2017-05-01T06:56:03.833Z,13.62
2017-05-01T06:58:39.076Z,11.80
2017-05-01T07:01:14.411Z,13.05
2017-05-01T07:03:49.729Z,13.13
2017-05-01T07:06:25.763Z,13.50
2017-05-01T07:09:01.020Z,15.90
2017-05-01T07:11:36.232Z,13.17
2017-05-01T07:14:11.404Z,12.82
2017-05-01T07:16:46.917Z,15.35
2017-05-01T07:19:22.072Z,12.32
2017-05-01T07:22:00.159Z,12.15
2017-05-01T07:24:35.274Z,13.77
2017-05-01T07:27:10.478Z,16.47
2017-05-01T07:29:45.773Z,14.73
2017-05-01T07:32:20.930Z,13.47
2017-05-01T07:34:56.141Z,14.35
2017-05-01T07:37:31.494Z,14.63
2017-05-01T07:40:06.625Z,14.88
2017-05-01T07:42:41.653Z,14.63
2017-05-01T07:45:16.997Z,14.72
2017-05-01T07:47:52.186Z,14.93
2017-05-01T07:50:27.382Z,15.98
2017-05-01T07:53:03.425Z,16.08
2017-05-01T07:55:38.679Z,16.23
2017-05-01T07:58:14.127Z,17.85
2017-05-01T08:00:50.385Z,14.52
2017-05-01T08:03:25.492Z,14.90
2017-05-01T08:06:01.532Z,15.40
2017-05-01T08:08:38.550Z,15.33
2017-05-01T08:11:13.815Z,14.67
2017-05-01T08:13:49.033Z,14.48
2017-05-01T08:16:24.946Z,13.90
2017-05-01T08:19:01.751Z,14.43
2017-05-01T08:21:37.139Z,15.65
2017-05-01T08:24:13.072Z,14.20
2017-05-01T08:26:48.990Z,16.97
2017-05-01T08:29:24.617Z,14.33
2017-05-01T08:31:59.784Z,14.45
2017-05-01T08:34:34.922Z,15.83
2017-05-01T08:37:10.184Z,14.17
2017-05-01T08:39:45.404Z,14.22
2017-05-01T08:42:20.538Z,14.85
2017-05-01T08:44:55.680Z,13.38
2017-05-01T08:47:30.913Z,14.58
2017-05-01T08:50:06.882Z,19.80
2017-05-01T08:52:42.142Z,12.88
2017-05-01T08:55:17.358Z,11.88
2017-05-01T08:57:52.494Z,13.48
2017-05-01T09:00:27.870Z,12.78
2017-05-01T09:03:03.081Z,13.78
2017-05-01T09:05:38.182Z,13.92
2017-05-01T09:08:13.277Z,12.65
2017-05-01T09:10:49.190Z,13.82
2017-05-01T09:13:24.360Z,14.70
2017-05-01T09:15:59.608Z,13.03
2017-05-01T09:18:34.834Z,12.75
2017-05-01T09:21:10.213Z,14.15
2017-05-01T09:23:45.470Z,12.10
2017-05-01T09:26:20.698Z,14.38
2017-05-01T09:28:57.200Z,13.37
2017-05-01T09:31:33.159Z,13.25
2017-05-01T09:34:08.598Z,13.58
2017-05-01T09:36:44.634Z,13.85
2017-05-01T09:39:19.998Z,13.63
2017-05-01T09:41:55.134Z,13.05
2017-05-01T09:44:30.961Z,13.42
2017-05-01T09:47:06.182Z,13.70
2017-05-01T09:49:41.939Z,15.65
2017-05-01T09:52:17.310Z,13.63
2017-05-01T09:54:52.617Z,13.38
2017-05-01T09:57:28.613Z,14.27
2017-05-01T10:00:03.918Z,15.48
2017-05-01T10:02:39.185Z,12.05
2017-05-01T10:05:15.133Z,14.10
2017-05-01T10:07:51.718Z,12.57
2017-05-01T10:10:27.753Z,12.17
2017-05-01T10:13:04.332Z,14.90
2017-05-01T10:15:39.580Z,14.68
2017-05-01T10:18:14.874Z,14.12
2017-05-01T10:20:50.811Z,13.90
2017-05-01T10:23:27.062Z,13.10
2017-05-01T10:26:05.999Z,13.07
2017-05-01T10:28:41.011Z,13.77
2017-05-01T10:31:17.885Z,13.65
2017-05-01T10:33:54.835Z,12.65
2017-05-01T10:36:29.977Z,15.02
2017-05-01T10:39:07.693Z,14.10
2017-05-01T10:41:44.045Z,13.33
2017-05-01T10:44:19.623Z,15.25
2017-05-01T10:46:55.530Z,17.07
2017-05-01T10:49:31.417Z,10.33
2017-05-01T10:52:06.829Z,14.30
2017-05-01T10:54:42.189Z,15.68
2017-05-01T10:57:21.679Z,14.95
2017-05-01T10:59:57.290Z,14.28
2017-05-01T11:02:32.457Z,13.63
2017-05-01T11:05:07.786Z,18.37
2017-05-01T11:07:43.899Z,13.40
2017-05-01T11:10:19.154Z,14.43
2017-05-01T11:12:54.303Z,14.30
2017-05-01T11:15:29.685Z,14.10
2017-05-01T11:18:04.949Z,13.85
2017-05-01T11:20:40.357Z,14.10
2017-05-01T11:23:17.002Z,14.25
2017-05-01T11:25:52.289Z,14.13
2017-05-01T11:28:28.254Z,13.23
2017-05-01T11:31:03.564Z,12.80
2017-05-01T11:33:38.666Z,13.92
2017-05-01T11:36:13.889Z,13.05
2017-05-01T11:38:48.925Z,13.92
2017-05-01T11:41:24.243Z,14.95
2017-05-01T11:43:59.578Z,13.97
2017-05-01T11:46:34.964Z,14.48
2017-05-01T11:49:10.242Z,12.25
2017-05-01T11:51:46.245Z,12.58
2017-05-01T11:54:22.295Z,14.43
2017-05-01T11:56:57.736Z,12.85
2017-05-01T11:59:33.048Z,13.60
2017-05-01T12:02:08.256Z,12.90
2017-05-01T12:04:43.449Z,12.90
2017-05-01T12:07:19.314Z,14.22
2017-05-01T12:09:54.451Z,11.65
2017-05-01T12:12:29.774Z,12.68
2017-05-01T12:15:05.006Z,14.27
2017-05-01T12:17:40.110Z,13.68
2017-05-01T12:20:16.017Z,12.27
2017-05-01T12:22:51.374Z,11.98
2017-05-01T12:25:26.578Z,13.93
2017-05-01T12:28:02.499Z,13.25
2017-05-01T12:30:37.843Z,8.55
2017-05-01T12:33:13.023Z,11.65
2017-05-01T12:35:48.214Z,11.42
2017-05-01T12:38:23.418Z,9.97
2017-05-01T12:40:58.501Z,10.73
2017-05-01T12:43:33.672Z,12.60
2017-05-01T12:46:08.887Z,11.37
2017-05-01T12:48:44.975Z,12.35
2017-05-01T12:51:20.261Z,11.33
2017-05-01T12:53:56.312Z,9.77
2017-05-01T12:56:31.608Z,12.67
2017-05-01T12:59:10.765Z,11.08
2017-05-01T13:01:46.069Z,10.60
2017-05-01T13:04:22.076Z,15.37
2017-05-01T13:06:57.592Z,10.75
2017-05-01T13:09:32.908Z,12.87
2017-05-01T13:12:08.448Z,10.90
2017-05-01T13:14:43.557Z,9.78
2017-05-01T13:17:18.725Z,11.48
2017-05-01T13:19:54.062Z,9.12
2017-05-01T13:22:29.361Z,10.75
2017-05-01T13:25:04.761Z,9.97
2017-05-01T13:27:40.705Z,9.23
2017-05-01T13:30:16.059Z,12.18
2017-05-01T13:32:52.116Z,10.33
2017-05-01T13:35:27.457Z,10.60
2017-05-01T13:38:03.395Z,11.42
2017-05-01T13:40:38.446Z,8.92
2017-05-01T13:43:13.865Z,8.92
2017-05-01T13:45:49.029Z,11.57
2017-05-01T13:48:24.086Z,7.42
2017-05-01T13:50:59.261Z,7.95
2017-05-01T13:53:34.512Z,10.93
2017-05-01T13:56:09.790Z,9.22
2017-05-01T13:58:45.896Z,9.67
2017-05-01T14:01:21.606Z,8.62
2017-05-01T14:03:57.446Z,6.57
2017-05-01T14:06:32.713Z,8.08
2017-05-01T14:09:08.023Z,9.85
2017-05-01T14:11:43.297Z,7.28
2017-05-01T14:14:18.876Z,9.05
2017-05-01T14:16:54.073Z,9.13
2017-05-01T14:19:29.433Z,9.95
2017-05-01T14:22:04.665Z,12.98
2017-05-01T14:24:39.889Z,8.28
2017-05-01T14:27:15.880Z,7.88
2017-05-01T14:29:51.094Z,6.78
2017-05-01T14:32:27.044Z,9.43
2017-05-01T14:35:03.148Z,9.35
2017-05-01T14:37:38.318Z,8.82
2017-05-01T14:40:13.989Z,8.80
2017-05-01T14:42:49.013Z,12.38
2017-05-01T14:45:24.334Z,8.68
2017-05-01T14:48:00.513Z,8.58
2017-05-01T14:50:35.807Z,10.60
2017-05-01T14:53:11.218Z,9.28
2017-05-01T14:55:46.369Z,6.67
2017-05-01T14:58:21.506Z,8.90
2017-05-01T15:00:57.136Z,8.50
2017-05-01T15:03:32.889Z,8.65
2017-05-01T15:06:08.092Z,8.38
2017-05-01T15:08:44.115Z,10.92
2017-05-01T15:11:19.366Z,9.27
2017-05-01T15:13:57.789Z,10.98
2017-05-01T15:16:34.049Z,9.97
2017-05-01T15:19:10.389Z,9.05
2017-05-01T15:21:45.641Z,10.17
2017-05-01T15:24:20.965Z,6.07
2017-05-01T15:26:57.825Z,10.27
2017-05-01T15:29:32.905Z,8.38
2017-05-01T15:32:08.999Z,11.08
2017-05-01T15:34:46.157Z,7.22
2017-05-01T15:37:21.693Z,8.00
2017-05-01T15:39:57.833Z,15.32
2017-05-01T15:42:33.186Z,10.72
2017-05-01T15:45:08.856Z,10.12
2017-05-01T15:47:44.282Z,7.85
2017-05-01T15:50:19.526Z,9.73
2017-05-01T15:52:54.699Z,7.40
2017-05-01T15:55:30.000Z,10.47
2017-05-01T15:58:05.280Z,13.97
2017-05-01T16:00:41.154Z,10.67
2017-05-01T16:03:17.473Z,7.35
2017-05-01T16:05:52.710Z,9.73
2017-05-01T16:08:29.101Z,6.87
2017-05-01T16:11:04.531Z,8.25
2017-05-01T16:13:40.646Z,7.98
2017-05-01T16:16:16.701Z,9.28
2017-05-01T16:18:51.857Z,11.67
2017-05-01T16:21:27.129Z,10.92
2017-05-01T16:24:02.253Z,10.80
2017-05-01T16:26:38.449Z,7.28
2017-05-01T16:29:14.402Z,9.03
2017-05-01T16:31:50.241Z,8.80
2017-05-01T16:34:25.430Z,7.38
2017-05-01T16:37:01.100Z,10.78
2017-05-01T16:39:37.753Z,8.45
2017-05-01T16:42:13.410Z,9.62
2017-05-01T16:44:49.890Z,6.82
2017-05-01T16:47:27.011Z,14.47
2017-05-01T16:50:04.599Z,7.68
2017-05-01T16:52:39.668Z,6.85
2017-05-01T16:55:15.122Z,7.10
2017-05-01T16:57:52.259Z,9.60
2017-05-01T17:00:29.334Z,6.15
2017-05-01T17:03:04.718Z,6.72
2017-05-01T17:05:41.838Z,8.62
2017-05-01T17:08:20.724Z,7.32
2017-05-01T17:10:56.123Z,6.10
2017-05-01T17:13:33.210Z,7.42
2017-05-01T17:16:08.754Z,10.62
2017-05-01T17:18:44.887Z,11.57
2017-05-01T17:21:20.706Z,7.93
2017-05-01T17:23:55.888Z,10.23
2017-05-01T17:26:33.163Z,5.68
2017-05-01T17:29:08.505Z,7.78
2017-05-01T17:31:44.099Z,10.37
2017-05-01T17:34:21.362Z,8.55
2017-05-01T17:36:57.703Z,11.73
2017-05-01T17:39:33.402Z,6.80
2017-05-01T17:42:09.357Z,9.45
2017-05-01T17:44:44.664Z,6.53
2017-05-01T17:47:20.418Z,6.78
2017-05-01T17:49:55.794Z,7.17
2017-05-01T17:52:32.845Z,8.75
2017-05-01T17:55:09.668Z,8.50
2017-05-01T17:57:46.626Z,7.80
2017-05-01T18:00:23.313Z,10.52
2017-05-01T18:03:00.019Z,7.15
2017-05-01T18:05:36.006Z,9.03
2017-05-01T18:08:11.889Z,11.15
2017-05-01T18:10:47.185Z,9.07
2017-05-01T18:13:22.370Z,9.32
2017-05-01T18:15:57.541Z,6.37
2017-05-01T18:18:32.916Z,10.22
2017-05-01T18:21:08.250Z,8.72
2017-05-01T18:23:44.585Z,8.58
2017-05-01T18:26:19.773Z,8.28
2017-05-01T18:28:55.596Z,6.98
2017-05-01T18:31:32.188Z,6.90
2017-05-01T18:34:07.367Z,9.78
2017-05-01T18:36:44.951Z,7.12
2017-05-01T18:39:20.995Z,6.25
2017-05-01T18:41:56.218Z,6.63
2017-05-01T18:44:32.018Z,8.33
2017-05-01T18:47:07.237Z,8.75
2017-05-01T18:49:44.199Z,11.97
2017-05-01T18:52:19.427Z,5.48
2017-05-01T18:54:58.535Z,6.02
2017-05-01T18:57:35.679Z,8.20
2017-05-01T19:00:10.841Z,8.47
2017-05-01T19:02:46.056Z,7.88
2017-05-01T19:05:21.374Z,6.35
2017-05-01T19:07:56.622Z,6.20
2017-05-01T19:10:32.470Z,7.92
2017-05-01T19:13:07.648Z,9.93
2017-05-01T19:15:43.244Z,5.55
2017-05-01T19:18:18.585Z,7.15
2017-05-01T19:20:53.884Z,5.75
2017-05-01T19:23:29.499Z,6.50
2017-05-01T19:26:04.914Z,9.57
2017-05-01T19:28:40.537Z,6.00
2017-05-01T19:31:16.308Z,7.92
2017-05-01T19:33:51.405Z,5.72
2017-05-01T19:36:27.377Z,11.97
2017-05-01T19:39:04.042Z,5.77
2017-05-01T19:41:40.099Z,16.82
2017-05-01T19:44:15.681Z,7.28
2017-05-01T19:46:51.042Z,7.78
2017-05-01T19:49:26.645Z,8.97
2017-05-01T19:52:01.946Z,8.38
2017-05-01T19:54:38.046Z,6.05
2017-05-01T19:57:13.262Z,9.00
2017-05-01T19:59:48.433Z,8.82
2017-05-01T20:02:23.640Z,6.47
2017-05-01T20:04:58.840Z,8.60
2017-05-01T20:07:35.602Z,10.83
2017-05-01T20:10:19.696Z,5.67
2017-05-01T20:12:55.652Z,6.22
2017-05-01T20:15:32.870Z,9.12
2017-05-01T20:18:12.153Z,9.10
2017-05-01T20:20:48.078Z,9.03
2017-05-01T20:23:23.538Z,12.25
2017-05-01T20:25:58.889Z,8.90
2017-05-01T20:28:35.406Z,9.42
2017-05-01T20:31:11.349Z,10.28
2017-05-01T20:33:48.381Z,8.70
2017-05-01T20:36:24.982Z,14.27
2017-05-01T20:39:00.320Z,8.23
2017-05-01T20:41:35.527Z,9.80
2017-05-01T20:44:10.923Z,7.78
2017-05-01T20:46:46.198Z,8.10
2017-05-01T20:49:21.419Z,7.43
2017-05-01T20:51:56.573Z,8.28
2017-05-01T20:54:32.309Z,8.12
2017-05-01T20:57:13.873Z,6.53
2017-05-01T20:59:50.226Z,9.77
2017-05-01T21:02:25.413Z,6.53
2017-05-01T21:05:00.692Z,10.35
2017-05-01T21:07:35.976Z,8.90
2017-05-01T21:10:11.239Z,6.30
2017-05-01T21:12:47.384Z,10.68
2017-05-01T21:15:22.584Z,7.52
2017-05-01T21:17:58.175Z,9.07
2017-05-01T21:20:33.439Z,9.82
2017-05-01T21:23:08.823Z,7.03
2017-05-01T21:25:43.880Z,5.77
2017-05-01T21:28:19.471Z,14.03
2017-05-01T21:30:54.677Z,7.77
2017-05-01T21:33:30.125Z,6.00
2017-05-01T21:36:05.919Z,9.23
2017-05-01T21:38:41.210Z,10.40
2017-05-01T21:41:16.415Z,14.58
2017-05-01T21:43:52.613Z,7.58
2017-05-01T21:46:27.733Z,7.85
2017-05-01T21:49:02.931Z,9.27
2017-05-01T21:51:38.224Z,9.88
2017-05-01T21:54:13.254Z,6.73
2017-05-01T21:56:48.449Z,8.67
2017-05-01T21:59:23.630Z,8.38
2017-05-01T22:01:58.873Z,13.97
2017-05-01T22:04:34.013Z,10.58
2017-05-01T22:07:09.343Z,9.15
2017-05-01T22:09:44.349Z,9.03
2017-05-01T22:12:20.286Z,8.62
2017-05-01T22:14:55.876Z,8.10
2017-05-01T22:17:31.022Z,11.65
2017-05-01T22:20:07.111Z,11.97
2017-05-01T22:22:42.205Z,14.75
2017-05-01T22:25:18.076Z,9.27
2017-05-01T22:27:53.282Z,6.33
2017-05-01T22:30:29.251Z,7.62
2017-05-01T22:33:04.502Z,10.13
2017-05-01T22:35:39.728Z,10.93
2017-05-01T22:38:14.969Z,10.08
2017-05-01T22:40:50.308Z,14.90
2017-05-01T22:43:25.517Z,8.13
2017-05-01T22:46:00.753Z,6.20
2017-05-01T22:48:38.155Z,9.57
2017-05-01T22:51:13.306Z,9.73
2017-05-01T22:53:54.364Z,6.47
2017-05-01T22:56:29.662Z,13.02
2017-05-01T23:02:10.198Z,9.97
2017-05-01T23:04:45.732Z,12.22
2017-05-01T23:07:21.436Z,9.42
2017-05-01T23:09:56.618Z,8.77
2017-05-01T23:12:31.866Z,6.20
2017-05-01T23:15:07.199Z,11.35
2017-05-01T23:17:42.748Z,9.83
2017-05-01T23:20:18.001Z,8.75
2017-05-01T23:22:53.228Z,13.63
2017-05-01T23:25:28.469Z,10.95
2017-05-01T23:28:03.650Z,7.88
2017-05-01T23:30:38.830Z,12.97
2017-05-01T23:33:13.856Z,12.90
2017-05-01T23:38:57.055Z,9.33
2017-05-01T23:41:32.114Z,10.57
2017-05-01T23:59:52.187Z,8.90
